Time,TemperatureF,DewpointF,PressureIn,WindDirection,WindDirectionDegrees,WindSpeedMPH,WindSpeedGustMPH,Humidity,HourlyPrecipIn,Conditions,Clouds,dailyrainin,SoftwareType,DateUTC
2013-03-27 00:00:00,36.5,19.2,30.10,WNW,292,0.0,3.0,49,0.00,,,0.00,meteohub,2013-03-27 04:00:00,
2013-03-27 00:05:00,36.0,18.7,30.10,WNW,292,0.0,3.0,49,0.00,,,0.00,meteohub,2013-03-27 04:05:00,
2013-03-27 00:10:00,36.1,19.2,30.10,WNW,292,2.0,3.0,50,0.00,,,0.00,meteohub,2013-03-27 04:10:00,
2013-03-27 00:15:00,36.3,19.4,30.10,WNW,292,3.0,3.0,50,0.00,,,0.00,meteohub,2013-03-27 04:15:00,
2013-03-27 00:20:00,36.3,19.4,30.10,WNW,292,0.0,3.0,50,0.00,,,0.00,meteohub,2013-03-27 04:20:00,
2013-03-27 00:25:00,36.3,19.4,30.10,WNW,292,2.0,4.0,50,0.00,,,0.00,meteohub,2013-03-27 04:25:00,
2013-03-27 00:30:00,36.1,19.2,30.10,WNW,292,2.0,4.0,50,0.00,,,0.00,meteohub,2013-03-27 04:30:00,
2013-03-27 00:35:00,36.1,19.2,30.10,WNW,292,0.0,4.0,50,0.00,,,0.00,meteohub,2013-03-27 04:35:00,
2013-03-27 00:40:00,36.0,19.0,30.10,WNW,292,0.0,3.0,50,0.00,,,0.00,meteohub,2013-03-27 04:40:00,
2013-03-27 00:45:00,35.8,19.4,30.10,WNW,292,0.0,3.0,51,0.00,,,0.00,meteohub,2013-03-27 04:45:00,
2013-03-27 00:50:00,36.0,19.6,30.10,WSW,248,2.0,3.0,51,0.00,,,0.00,meteohub,2013-03-27 04:50:00,
2013-03-27 00:55:00,36.0,19.6,30.10,WSW,248,3.0,3.0,51,0.00,,,0.00,meteohub,2013-03-27 04:55:00,
2013-03-27 01:00:00,36.0,19.6,30.10,WSW,248,2.0,4.0,51,0.00,,,0.00,meteohub,2013-03-27 05:00:00,
2013-03-27 01:05:00,36.0,19.6,30.10,West,270,2.0,4.0,51,0.00,,,0.00,meteohub,2013-03-27 05:05:00,
2013-03-27 01:10:00,36.0,19.6,30.10,West,270,0.0,4.0,51,0.00,,,0.00,meteohub,2013-03-27 05:10:00,
2013-03-27 01:15:00,36.1,19.8,30.10,West,270,4.0,4.0,51,0.00,,,0.00,meteohub,2013-03-27 05:15:00,
2013-03-27 01:20:00,36.1,19.2,30.10,West,270,4.0,5.0,50,0.00,,,0.00,meteohub,2013-03-27 05:20:00,
2013-03-27 01:25:00,36.1,19.2,30.10,West,270,3.0,5.0,50,0.00,,,0.00,meteohub,2013-03-27 05:25:00,
2013-03-27 01:30:00,36.1,19.2,30.10,WSW,248,4.0,5.0,50,0.00,,,0.00,meteohub,2013-03-27 05:30:00,
2013-03-27 01:35:00,36.3,19.4,30.10,WSW,248,0.0,5.0,50,0.00,,,0.00,meteohub,2013-03-27 05:35:00,
2013-03-27 01:40:00,35.8,19.0,30.10,WSW,248,0.0,4.0,50,0.00,,,0.00,meteohub,2013-03-27 05:40:00,
2013-03-27 01:45:00,35.6,19.2,30.10,WSW,248,0.0,4.0,51,0.00,,,0.00,meteohub,2013-03-27 05:45:00,
2013-03-27 01:50:00,35.4,19.0,30.10,WSW,248,2.0,3.0,51,0.00,,,0.00,meteohub,2013-03-27 05:50:00,
2013-03-27 01:55:00,35.2,19.4,30.10,WSW,248,3.0,3.0,52,0.00,,,0.00,meteohub,2013-03-27 05:55:00,
2013-03-27 02:00:00,35.4,19.6,30.10,West,270,3.0,4.0,52,0.00,,,0.00,meteohub,2013-03-27 06:00:00,
2013-03-27 02:06:00,35.4,19.6,30.10,West,270,0.0,4.0,52,0.00,,,0.00,meteohub,2013-03-27 06:06:00,
2013-03-27 02:11:00,35.4,19.6,30.10,West,270,0.0,5.0,52,0.00,,,0.00,meteohub,2013-03-27 06:11:00,
2013-03-27 02:16:00,35.4,19.6,30.10,WSW,248,3.0,5.0,52,0.00,,,0.00,meteohub,2013-03-27 06:16:00,
2013-03-27 02:21:00,35.4,19.6,30.10,WSW,248,4.0,5.0,52,0.00,,,0.00,meteohub,2013-03-27 06:21:00,
2013-03-27 02:26:00,35.1,19.2,30.10,WSW,248,3.0,5.0,52,0.00,,,0.00,meteohub,2013-03-27 06:26:00,
2013-03-27 02:31:00,35.2,19.4,30.10,West,270,0.0,5.0,52,0.00,,,0.00,meteohub,2013-03-27 06:31:00,
2013-03-27 02:36:00,34.9,19.0,30.10,West,270,0.0,4.0,52,0.00,,,0.00,meteohub,2013-03-27 06:36:00,
2013-03-27 02:41:00,34.5,18.7,30.10,West,270,0.0,4.0,52,0.00,,,0.00,meteohub,2013-03-27 06:41:00,
2013-03-27 02:46:00,34.3,19.0,30.10,West,270,0.0,3.0,53,0.00,,,0.00,meteohub,2013-03-27 06:46:00,
2013-03-27 02:51:00,34.2,19.2,30.10,West,270,2.0,4.0,54,0.00,,,0.00,meteohub,2013-03-27 06:51:00,
2013-03-27 02:56:00,34.2,19.2,30.10,West,270,2.0,4.0,54,0.00,,,0.00,meteohub,2013-03-27 06:56:00,
2013-03-27 03:01:00,34.2,19.2,30.10,West,270,2.0,3.0,54,0.00,,,0.00,meteohub,2013-03-27 07:01:00,
2013-03-27 03:06:00,34.2,19.2,30.10,West,270,0.0,3.0,54,0.00,,,0.00,meteohub,2013-03-27 07:06:00,
2013-03-27 03:11:00,34.0,19.0,30.10,WSW,248,4.0,4.0,54,0.00,,,0.00,meteohub,2013-03-27 07:11:00,
2013-03-27 03:16:00,34.0,19.0,30.10,WSW,248,3.0,4.0,54,0.00,,,0.00,meteohub,2013-03-27 07:16:00,
2013-03-27 03:21:00,34.0,19.6,30.10,West,270,3.0,4.0,55,0.00,,,0.00,meteohub,2013-03-27 07:21:00,
2013-03-27 03:27:00,33.8,19.4,30.10,West,270,0.0,4.0,55,0.00,,,0.00,meteohub,2013-03-27 07:27:00,
2013-03-27 03:32:00,33.8,19.4,30.10,West,270,0.0,4.0,55,0.00,,,0.00,meteohub,2013-03-27 07:32:00,
2013-03-27 03:37:00,33.8,19.4,30.10,West,270,0.0,3.0,55,0.00,,,0.00,meteohub,2013-03-27 07:37:00,
2013-03-27 03:42:00,33.6,19.2,30.10,West,270,0.0,3.0,55,0.00,,,0.00,meteohub,2013-03-27 07:42:00,
2013-03-27 03:47:00,33.4,19.4,30.10,West,270,0.0,3.0,56,0.00,,,0.00,meteohub,2013-03-27 07:47:00,
2013-03-27 03:52:00,33.6,19.6,30.10,West,270,0.0,3.0,56,0.00,,,0.00,meteohub,2013-03-27 07:52:00,
2013-03-27 03:57:00,33.4,19.4,30.10,West,270,0.0,3.0,56,0.00,,,0.00,meteohub,2013-03-27 07:57:00,
2013-03-27 04:02:00,33.4,19.4,30.10,West,270,3.0,3.0,56,0.00,,,0.00,meteohub,2013-03-27 08:02:00,
2013-03-27 04:07:00,33.8,19.8,30.10,WSW,248,3.0,4.0,56,0.00,,,0.00,meteohub,2013-03-27 08:07:00,
2013-03-27 04:12:00,34.0,19.6,30.10,West,270,2.0,4.0,55,0.00,,,0.00,meteohub,2013-03-27 08:12:00,
2013-03-27 04:17:00,34.0,19.6,30.10,WNW,292,0.0,4.0,55,0.00,,,0.00,meteohub,2013-03-27 08:17:00,
2013-03-27 04:22:00,33.8,19.4,30.10,WNW,292,0.0,4.0,55,0.00,,,0.00,meteohub,2013-03-27 08:22:00,
2013-03-27 04:27:00,33.6,19.2,30.10,WNW,292,0.0,3.0,55,0.00,,,0.00,meteohub,2013-03-27 08:27:00,
2013-03-27 04:32:00,33.4,19.4,30.10,SSW,202,2.0,3.0,56,0.00,,,0.00,meteohub,2013-03-27 08:32:00,
2013-03-27 04:37:00,33.4,19.4,30.10,SW,225,3.0,3.0,56,0.00,,,0.00,meteohub,2013-03-27 08:37:00,
2013-03-27 04:42:00,33.4,19.4,30.10,SW,225,0.0,3.0,56,0.00,,,0.00,meteohub,2013-03-27 08:42:00,
2013-03-27 04:47:00,33.3,19.2,30.10,SW,225,0.0,3.0,56,0.00,,,0.00,meteohub,2013-03-27 08:47:00,
2013-03-27 04:52:00,32.9,18.9,30.10,SW,225,0.0,3.0,56,0.00,,,0.00,meteohub,2013-03-27 08:52:00,
2013-03-27 04:57:00,32.7,19.2,30.10,SW,225,0.0,2.0,57,0.00,,,0.00,meteohub,2013-03-27 08:57:00,
2013-03-27 05:02:00,32.5,19.4,30.10,SW,225,2.0,0.0,58,0.00,,,0.00,meteohub,2013-03-27 09:02:00,
2013-03-27 05:07:00,32.7,19.9,30.10,SW,225,2.0,3.0,59,0.00,,,0.00,meteohub,2013-03-27 09:07:00,
2013-03-27 05:12:00,32.7,19.9,30.10,SW,225,0.0,3.0,59,0.00,,,0.00,meteohub,2013-03-27 09:12:00,
2013-03-27 05:17:00,32.5,19.8,30.10,SW,225,0.0,3.0,59,0.00,,,0.00,meteohub,2013-03-27 09:17:00,
2013-03-27 05:22:00,32.5,19.8,30.10,SW,225,0.0,3.0,59,0.00,,,0.00,meteohub,2013-03-27 09:22:00,
2013-03-27 05:27:00,32.5,20.1,30.10,SW,225,3.0,3.0,60,0.00,,,0.00,meteohub,2013-03-27 09:27:00,
2013-03-27 05:32:00,32.7,20.3,30.10,SW,225,3.0,3.0,60,0.00,,,0.00,meteohub,2013-03-27 09:32:00,
2013-03-27 05:37:00,32.9,20.5,30.10,SW,225,2.0,4.0,60,0.00,,,0.00,meteohub,2013-03-27 09:37:00,
2013-03-27 05:42:00,32.9,20.1,30.10,WSW,248,3.0,4.0,59,0.00,,,0.00,meteohub,2013-03-27 09:42:00,
2013-03-27 05:47:00,33.1,20.3,30.10,WSW,248,3.0,4.0,59,0.00,,,0.00,meteohub,2013-03-27 09:47:00,
2013-03-27 05:52:00,32.9,20.1,30.10,WSW,248,0.0,4.0,59,0.00,,,0.00,meteohub,2013-03-27 09:52:00,
2013-03-27 05:57:00,32.5,19.8,30.13,WSW,248,0.0,4.0,59,0.00,,,0.00,meteohub,2013-03-27 09:57:00,
2013-03-27 06:02:00,32.4,19.6,30.13,WSW,248,0.0,3.0,59,0.00,,,0.00,meteohub,2013-03-27 10:02:00,
2013-03-27 06:07:00,32.2,19.9,30.13,WSW,248,0.0,3.0,60,0.00,,,0.00,meteohub,2013-03-27 10:07:00,
2013-03-27 06:12:00,31.8,19.9,30.13,WSW,248,0.0,3.0,61,0.00,,,0.00,meteohub,2013-03-27 10:12:00,
2013-03-27 06:17:00,31.6,19.8,30.13,WSW,248,0.0,3.0,61,0.00,,,0.00,meteohub,2013-03-27 10:17:00,
2013-03-27 06:22:00,31.8,20.3,30.13,WSW,248,0.0,3.0,62,0.00,,,0.00,meteohub,2013-03-27 10:22:00,
2013-03-27 06:28:00,31.6,20.5,30.13,WSW,248,0.0,2.0,63,0.00,,,0.00,meteohub,2013-03-27 10:28:00,
2013-03-27 06:33:00,31.5,20.3,30.13,WSW,248,0.0,2.0,63,0.00,,,0.00,meteohub,2013-03-27 10:33:00,
2013-03-27 06:38:00,31.5,20.7,30.13,WSW,248,0.0,0.0,64,0.00,,,0.00,meteohub,2013-03-27 10:38:00,
2013-03-27 06:43:00,31.3,20.5,30.13,WSW,248,0.0,2.0,64,0.00,,,0.00,meteohub,2013-03-27 10:43:00,
2013-03-27 06:48:00,31.5,20.7,30.13,WSW,248,4.0,4.0,64,0.00,,,0.00,meteohub,2013-03-27 10:48:00,
2013-03-27 06:53:00,31.8,21.0,30.13,WSW,248,3.0,4.0,64,0.00,,,0.00,meteohub,2013-03-27 10:53:00,
2013-03-27 06:58:00,31.8,21.0,30.13,WSW,248,4.0,4.0,64,0.00,,,0.00,meteohub,2013-03-27 10:58:00,
2013-03-27 07:03:00,32.0,21.2,30.13,WSW,248,4.0,4.0,64,0.00,,,0.00,meteohub,2013-03-27 11:03:00,
2013-03-27 07:08:00,32.2,21.0,30.13,WSW,248,3.0,4.0,63,0.00,,,0.00,meteohub,2013-03-27 11:08:00,
2013-03-27 07:13:00,32.4,21.2,30.13,WSW,248,4.0,4.0,63,0.00,,,0.00,meteohub,2013-03-27 11:13:00,
2013-03-27 07:18:00,32.4,21.2,30.13,WSW,248,4.0,4.0,63,0.00,,,0.00,meteohub,2013-03-27 11:18:00,
2013-03-27 07:23:00,32.7,21.6,30.13,WSW,248,3.0,4.0,63,0.00,,,0.00,meteohub,2013-03-27 11:23:00,
2013-03-27 07:28:00,32.7,21.2,30.16,WSW,248,2.0,5.0,62,0.00,,,0.00,meteohub,2013-03-27 11:28:00,
2013-03-27 07:33:00,33.1,21.0,30.16,WSW,248,4.0,5.0,61,0.00,,,0.00,meteohub,2013-03-27 11:33:00,
2013-03-27 07:38:00,33.3,20.8,30.16,WSW,248,3.0,4.0,60,0.00,,,0.00,meteohub,2013-03-27 11:38:00,
2013-03-27 07:43:00,33.6,20.8,30.16,WSW,248,4.0,4.0,59,0.00,,,0.00,meteohub,2013-03-27 11:43:00,
2013-03-27 07:48:00,34.0,20.8,30.16,WSW,248,4.0,4.0,58,0.00,,,0.00,meteohub,2013-03-27 11:48:00,
2013-03-27 07:53:00,34.3,20.3,30.16,WSW,248,4.0,4.0,56,0.00,,,0.00,meteohub,2013-03-27 11:53:00,
2013-03-27 07:58:00,34.9,20.3,30.16,West,270,0.0,6.0,55,0.00,,,0.00,meteohub,2013-03-27 11:58:00,
2013-03-27 08:03:00,35.2,20.3,30.16,SW,225,3.0,6.0,54,0.00,,,0.00,meteohub,2013-03-27 12:03:00,
2013-03-27 08:08:00,35.6,19.8,30.16,West,270,3.0,6.0,52,0.00,,,0.00,meteohub,2013-03-27 12:08:00,
2013-03-27 08:13:00,36.1,19.8,30.16,WSW,248,0.0,5.0,51,0.00,,,0.00,meteohub,2013-03-27 12:13:00,
2013-03-27 08:18:00,36.7,20.3,30.16,WSW,248,2.0,5.0,51,0.00,,,0.00,meteohub,2013-03-27 12:18:00,
2013-03-27 08:23:00,36.9,19.9,30.16,WSW,248,2.0,5.0,50,0.00,,,0.00,meteohub,2013-03-27 12:23:00,
2013-03-27 08:28:00,37.4,19.6,30.16,SW,225,4.0,4.0,48,0.00,,,0.00,meteohub,2013-03-27 12:28:00,
2013-03-27 08:33:00,37.9,19.6,30.16,WSW,248,3.0,5.0,47,0.00,,,0.00,meteohub,2013-03-27 12:33:00,
2013-03-27 08:38:00,38.1,19.2,30.16,SSW,202,4.0,5.0,46,0.00,,,0.00,meteohub,2013-03-27 12:38:00,
2013-03-27 08:43:00,38.5,19.0,30.16,NE,45,3.0,6.0,45,0.00,,,0.00,meteohub,2013-03-27 12:43:00,
2013-03-27 08:48:00,39.0,18.9,30.16,WSW,248,6.0,8.0,44,0.00,,,0.00,meteohub,2013-03-27 12:48:00,
2013-03-27 08:53:00,39.4,18.1,30.16,WNW,292,5.0,8.0,42,0.00,,,0.00,meteohub,2013-03-27 12:53:00,
2013-03-27 08:58:00,40.1,18.9,30.16,West,270,4.0,8.0,42,0.00,,,0.00,meteohub,2013-03-27 12:58:00,
2013-03-27 09:03:00,40.6,18.9,30.16,NNW,338,3.0,8.0,41,0.00,,,0.00,meteohub,2013-03-27 13:03:00,
2013-03-27 09:08:00,41.0,18.5,30.16,SSE,158,4.0,8.0,40,0.00,,,0.00,meteohub,2013-03-27 13:08:00,
2013-03-27 09:13:00,41.2,18.7,30.16,WSW,248,6.0,8.0,40,0.00,,,0.00,meteohub,2013-03-27 13:13:00,
2013-03-27 09:18:00,41.9,19.4,30.16,WSW,248,3.0,8.0,40,0.00,,,0.00,meteohub,2013-03-27 13:18:00,
2013-03-27 09:23:00,42.4,19.8,30.16,South,180,3.0,8.0,40,0.00,,,0.00,meteohub,2013-03-27 13:23:00,
2013-03-27 09:28:00,42.6,19.4,30.16,WNW,292,4.0,8.0,39,0.00,,,0.00,meteohub,2013-03-27 13:28:00,
2013-03-27 09:34:00,43.5,19.6,30.16,NNW,338,3.0,8.0,38,0.00,,,0.00,meteohub,2013-03-27 13:34:00,
2013-03-27 09:38:00,44.6,20.5,30.16,NNE,22,3.0,8.0,38,0.00,,,0.00,meteohub,2013-03-27 13:38:00,
2013-03-27 09:44:00,44.2,19.0,30.16,West,270,3.0,8.0,36,0.00,,,0.00,meteohub,2013-03-27 13:44:00,
2013-03-27 09:49:00,44.4,19.0,30.16,NNW,338,4.0,8.0,36,0.00,,,0.00,meteohub,2013-03-27 13:49:00,
2013-03-27 09:54:00,45.0,18.9,30.16,West,270,8.0,11.0,35,0.00,,,0.00,meteohub,2013-03-27 13:54:00,
2013-03-27 09:59:00,44.8,18.1,30.16,South,180,3.0,11.0,34,0.00,,,0.00,meteohub,2013-03-27 13:59:00,
2013-03-27 10:04:00,45.1,18.5,30.16,SSW,202,6.0,11.0,34,0.00,,,0.00,meteohub,2013-03-27 14:04:00,
2013-03-27 10:09:00,45.7,18.1,30.16,NNE,22,4.0,8.0,33,0.00,,,0.00,meteohub,2013-03-27 14:09:00,
2013-03-27 10:14:00,45.5,17.4,30.19,SSW,202,0.0,11.0,32,0.00,,,0.00,meteohub,2013-03-27 14:14:00,
2013-03-27 10:19:00,46.0,17.8,30.19,WSW,248,6.0,12.0,32,0.00,,,0.00,meteohub,2013-03-27 14:19:00,
2013-03-27 10:24:00,46.6,17.6,30.19,SSW,202,5.0,12.0,31,0.00,,,0.00,meteohub,2013-03-27 14:24:00,
2013-03-27 10:29:00,46.6,17.6,30.16,NE,45,6.0,12.0,31,0.00,,,0.00,meteohub,2013-03-27 14:29:00,
2013-03-27 10:34:00,46.4,16.7,30.16,NNW,338,5.0,11.0,30,0.00,,,0.00,meteohub,2013-03-27 14:34:00,
2013-03-27 10:39:00,46.9,17.1,30.16,NNW,338,7.0,13.0,30,0.00,,,0.00,meteohub,2013-03-27 14:39:00,
2013-03-27 10:44:00,46.8,16.9,30.16,WSW,248,6.0,13.0,30,0.00,,,0.00,meteohub,2013-03-27 14:44:00,
2013-03-27 10:49:00,47.5,17.6,30.16,SSW,202,3.0,13.0,30,0.00,,,0.00,meteohub,2013-03-27 14:49:00,
2013-03-27 10:54:00,47.5,17.6,30.16,NNW,338,4.0,10.0,30,0.00,,,0.00,meteohub,2013-03-27 14:54:00,
2013-03-27 10:59:00,47.3,17.4,30.16,NNE,22,8.0,10.0,30,0.00,,,0.00,meteohub,2013-03-27 14:59:00,
2013-03-27 11:04:00,47.1,16.5,30.16,SSE,158,4.0,9.0,29,0.00,,,0.00,meteohub,2013-03-27 15:04:00,
2013-03-27 11:09:00,47.3,16.7,30.16,WNW,292,7.0,9.0,29,0.00,,,0.00,meteohub,2013-03-27 15:09:00,
2013-03-27 11:14:00,48.4,17.6,30.16,East,90,3.0,8.0,29,0.00,,,0.00,meteohub,2013-03-27 15:14:00,
2013-03-27 11:19:00,48.9,18.0,30.16,NNE,22,6.0,8.0,29,0.00,,,0.00,meteohub,2013-03-27 15:19:00,
2013-03-27 11:24:00,48.9,17.2,30.16,ENE,68,6.0,8.0,28,0.00,,,0.00,meteohub,2013-03-27 15:24:00,
2013-03-27 11:29:00,48.9,17.2,30.16,NW,315,6.0,10.0,28,0.00,,,0.00,meteohub,2013-03-27 15:29:00,
2013-03-27 11:34:00,48.7,17.1,30.16,WNW,292,10.0,10.0,28,0.00,,,0.00,meteohub,2013-03-27 15:34:00,
2013-03-27 11:39:00,48.9,17.2,30.16,SW,225,5.0,10.0,28,0.00,,,0.00,meteohub,2013-03-27 15:39:00,
2013-03-27 11:44:00,48.7,17.1,30.16,WSW,248,4.0,11.0,28,0.00,,,0.00,meteohub,2013-03-27 15:44:00,
2013-03-27 11:49:00,49.6,17.8,30.16,NNE,22,4.0,11.0,28,0.00,,,0.00,meteohub,2013-03-27 15:49:00,
2013-03-27 11:54:00,48.7,17.1,30.16,WSW,248,3.0,11.0,28,0.00,,,0.00,meteohub,2013-03-27 15:54:00,
2013-03-27 11:59:00,50.2,18.3,30.16,NNW,338,6.0,15.0,28,0.00,,,0.00,meteohub,2013-03-27 15:59:00,
2013-03-27 12:04:00,50.7,18.9,30.16,North,0,3.0,15.0,28,0.00,,,0.00,meteohub,2013-03-27 16:04:00,
2013-03-27 12:09:00,50.4,18.5,30.16,NNW,338,5.0,15.0,28,0.00,,,0.00,meteohub,2013-03-27 16:09:00,
2013-03-27 12:14:00,50.4,18.5,30.16,NNE,22,5.0,13.0,28,0.00,,,0.00,meteohub,2013-03-27 16:14:00,
2013-03-27 12:19:00,50.7,18.0,30.16,NNE,22,11.0,13.0,27,0.00,,,0.00,meteohub,2013-03-27 16:19:00,
2013-03-27 12:24:00,51.1,18.3,30.16,NNE,22,7.0,10.0,27,0.00,,,0.00,meteohub,2013-03-27 16:24:00,
2013-03-27 12:29:00,49.5,17.8,30.16,NNE,22,8.0,13.0,28,0.00,,,0.00,meteohub,2013-03-27 16:29:00,
2013-03-27 12:34:00,50.4,18.5,30.16,NNW,338,6.0,13.0,28,0.00,,,0.00,meteohub,2013-03-27 16:34:00,
2013-03-27 12:39:00,51.4,18.5,30.16,NNW,338,8.0,13.0,27,0.00,,,0.00,meteohub,2013-03-27 16:39:00,
2013-03-27 12:44:00,52.2,19.2,30.16,WSW,248,7.0,13.0,27,0.00,,,0.00,meteohub,2013-03-27 16:44:00,
2013-03-27 12:49:00,51.8,18.9,30.16,SE,135,3.0,12.0,27,0.00,,,0.00,meteohub,2013-03-27 16:49:00,
2013-03-27 12:55:00,50.5,17.8,30.16,SW,225,4.0,12.0,27,0.00,,,0.00,meteohub,2013-03-27 16:55:00,
2013-03-27 13:00:00,50.5,17.8,30.16,WSW,248,5.0,12.0,27,0.00,,,0.00,meteohub,2013-03-27 17:00:00,
2013-03-27 13:05:00,51.6,18.7,30.16,West,270,3.0,12.0,27,0.00,,,0.00,meteohub,2013-03-27 17:05:00,
2013-03-27 13:10:00,50.7,18.0,30.16,ESE,112,4.0,12.0,27,0.00,,,0.00,meteohub,2013-03-27 17:10:00,
2013-03-27 13:15:00,52.2,19.2,30.13,WSW,248,10.0,11.0,27,0.00,,,0.00,meteohub,2013-03-27 17:15:00,
2013-03-27 13:20:00,52.0,19.0,30.13,North,0,5.0,11.0,27,0.00,,,0.00,meteohub,2013-03-27 17:20:00,
2013-03-27 13:25:00,50.2,17.4,30.13,WNW,292,4.0,10.0,27,0.00,,,0.00,meteohub,2013-03-27 17:25:00,
2013-03-27 13:30:00,50.5,17.8,30.16,WSW,248,4.0,10.0,27,0.00,,,0.00,meteohub,2013-03-27 17:30:00,
2013-03-27 13:35:00,51.3,18.3,30.16,SW,225,8.0,11.0,27,0.00,,,0.00,meteohub,2013-03-27 17:35:00,
2013-03-27 13:40:00,51.4,18.5,30.16,NW,315,3.0,12.0,27,0.00,,,0.00,meteohub,2013-03-27 17:40:00,
2013-03-27 13:45:00,50.9,18.1,30.16,NNE,22,4.0,12.0,27,0.00,,,0.00,meteohub,2013-03-27 17:45:00,
2013-03-27 13:50:00,50.4,17.6,30.16,SW,225,3.0,12.0,27,0.00,,,0.00,meteohub,2013-03-27 17:50:00,
2013-03-27 13:55:00,51.3,18.3,30.13,WSW,248,10.0,11.0,27,0.00,,,0.00,meteohub,2013-03-27 17:55:00,
2013-03-27 14:00:00,50.0,17.2,30.13,WNW,292,6.0,11.0,27,0.00,,,0.00,meteohub,2013-03-27 18:00:00,
2013-03-27 14:05:00,50.2,17.4,30.13,NW,315,4.0,11.0,27,0.00,,,0.00,meteohub,2013-03-27 18:05:00,
2013-03-27 14:10:00,51.1,18.3,30.13,WSW,248,8.0,12.0,27,0.00,,,0.00,meteohub,2013-03-27 18:10:00,
2013-03-27 14:15:00,51.6,18.7,30.13,WSW,248,5.0,13.0,27,0.00,,,0.00,meteohub,2013-03-27 18:15:00,
2013-03-27 14:20:00,51.3,18.3,30.13,WSW,248,10.0,13.0,27,0.00,,,0.00,meteohub,2013-03-27 18:20:00,
2013-03-27 14:25:00,50.9,18.1,30.13,SSE,158,3.0,13.0,27,0.00,,,0.00,meteohub,2013-03-27 18:25:00,
2013-03-27 14:30:00,51.3,18.3,30.13,NE,45,5.0,13.0,27,0.00,,,0.00,meteohub,2013-03-27 18:30:00,
2013-03-27 14:35:00,50.5,17.8,30.13,NE,45,3.0,13.0,27,0.00,,,0.00,meteohub,2013-03-27 18:35:00,
2013-03-27 14:40:00,50.5,17.8,30.13,NNW,338,4.0,8.0,27,0.00,,,0.00,meteohub,2013-03-27 18:40:00,
2013-03-27 14:45:00,50.7,18.0,30.13,NNE,22,4.0,9.0,27,0.00,,,0.00,meteohub,2013-03-27 18:45:00,
2013-03-27 14:50:00,53.1,19.9,30.13,NNW,338,3.0,10.0,27,0.00,,,0.00,meteohub,2013-03-27 18:50:00,
2013-03-27 14:55:00,54.5,20.3,30.13,WNW,292,12.0,12.0,26,0.00,,,0.00,meteohub,2013-03-27 18:55:00,
2013-03-27 15:00:00,53.2,19.2,30.13,NNW,338,4.0,12.0,26,0.00,,,0.00,meteohub,2013-03-27 19:00:00,
2013-03-27 15:05:00,54.5,20.3,30.13,NE,45,3.0,12.0,26,0.00,,,0.00,meteohub,2013-03-27 19:05:00,
2013-03-27 15:10:00,55.9,20.7,30.13,WSW,248,7.0,12.0,25,0.00,,,0.00,meteohub,2013-03-27 19:10:00,
2013-03-27 15:15:00,54.1,19.9,30.13,West,270,8.0,8.0,26,0.00,,,0.00,meteohub,2013-03-27 19:15:00,
2013-03-27 15:20:00,53.6,19.6,30.13,NW,315,5.0,11.0,26,0.00,,,0.00,meteohub,2013-03-27 19:20:00,
2013-03-27 15:25:00,54.9,20.7,30.13,North,0,4.0,11.0,26,0.00,,,0.00,meteohub,2013-03-27 19:25:00,
2013-03-27 15:30:00,57.6,21.9,30.13,North,0,4.0,8.0,25,0.00,,,0.00,meteohub,2013-03-27 19:30:00,
2013-03-27 15:35:00,57.6,21.9,30.13,NNW,338,3.0,8.0,25,0.00,,,0.00,meteohub,2013-03-27 19:35:00,
2013-03-27 15:40:00,55.2,20.8,30.13,NNE,22,4.0,8.0,26,0.00,,,0.00,meteohub,2013-03-27 19:40:00,
2013-03-27 15:45:00,55.4,20.1,30.13,West,270,9.0,9.0,25,0.00,,,0.00,meteohub,2013-03-27 19:45:00,
2013-03-27 15:51:00,55.8,20.5,30.13,West,270,6.0,10.0,25,0.00,,,0.00,meteohub,2013-03-27 19:51:00,
2013-03-27 15:56:00,55.4,20.1,30.13,ESE,112,4.0,12.0,25,0.00,,,0.00,meteohub,2013-03-27 19:56:00,
2013-03-27 16:01:00,56.5,21.0,30.13,SW,225,3.0,12.0,25,0.00,,,0.00,meteohub,2013-03-27 20:01:00,
2013-03-27 16:06:00,56.1,20.8,30.13,NNE,22,3.0,12.0,25,0.00,,,0.00,meteohub,2013-03-27 20:06:00,
2013-03-27 16:11:00,53.2,19.2,30.13,North,0,3.0,12.0,26,0.00,,,0.00,meteohub,2013-03-27 20:11:00,
2013-03-27 16:16:00,52.0,18.1,30.13,NNE,22,8.0,14.0,26,0.00,,,0.00,meteohub,2013-03-27 20:16:00,
2013-03-27 16:21:00,53.2,19.2,30.13,North,0,3.0,14.0,26,0.00,,,0.00,meteohub,2013-03-27 20:21:00,
2013-03-27 16:26:00,53.8,18.9,30.13,SSE,158,4.0,13.0,25,0.00,,,0.00,meteohub,2013-03-27 20:26:00,
2013-03-27 16:31:00,53.8,18.9,30.13,WSW,248,4.0,11.0,25,0.00,,,0.00,meteohub,2013-03-27 20:31:00,
2013-03-27 16:36:00,53.4,19.4,30.13,North,0,7.0,11.0,26,0.00,,,0.00,meteohub,2013-03-27 20:36:00,
2013-03-27 16:41:00,51.8,18.0,30.13,WSW,248,4.0,11.0,26,0.00,,,0.00,meteohub,2013-03-27 20:41:00,
2013-03-27 16:46:00,50.9,17.2,30.13,WSW,248,8.0,13.0,26,0.00,,,0.00,meteohub,2013-03-27 20:46:00,
2013-03-27 16:51:00,50.2,16.5,30.13,WSW,248,6.0,13.0,26,0.00,,,0.00,meteohub,2013-03-27 20:51:00,
2013-03-27 16:57:00,51.8,18.0,30.13,WNW,292,2.0,12.0,26,0.00,,,0.00,meteohub,2013-03-27 20:57:00,
2013-03-27 17:02:00,52.7,18.7,30.13,NNE,22,5.0,12.0,26,0.00,,,0.00,meteohub,2013-03-27 21:02:00,
2013-03-27 17:07:00,53.1,19.0,30.13,SSE,158,4.0,9.0,26,0.00,,,0.00,meteohub,2013-03-27 21:07:00,
2013-03-27 17:12:00,52.9,18.9,30.13,NNE,22,4.0,9.0,26,0.00,,,0.00,meteohub,2013-03-27 21:12:00,
2013-03-27 17:17:00,51.8,18.0,30.13,NNW,338,5.0,14.0,26,0.00,,,0.00,meteohub,2013-03-27 21:17:00,
2013-03-27 17:22:00,52.5,18.7,30.13,ENE,68,6.0,14.0,26,0.00,,,0.00,meteohub,2013-03-27 21:22:00,
2013-03-27 17:27:00,52.7,18.7,30.13,NNW,338,5.0,14.0,26,0.00,,,0.00,meteohub,2013-03-27 21:27:00,
2013-03-27 17:32:00,53.1,19.0,30.13,NNE,22,4.0,12.0,26,0.00,,,0.00,meteohub,2013-03-27 21:32:00,
2013-03-27 17:37:00,53.6,18.7,30.13,WSW,248,5.0,12.0,25,0.00,,,0.00,meteohub,2013-03-27 21:37:00,
2013-03-27 17:42:00,51.4,17.6,30.13,NE,45,6.0,9.0,26,0.00,,,0.00,meteohub,2013-03-27 21:42:00,
2013-03-27 17:47:00,50.2,16.5,30.13,ENE,68,8.0,13.0,26,0.00,,,0.00,meteohub,2013-03-27 21:47:00,
2013-03-27 17:52:00,49.5,16.0,30.13,NE,45,4.0,13.0,26,0.00,,,0.00,meteohub,2013-03-27 21:52:00,
2013-03-27 17:57:00,49.6,16.2,30.13,SSW,202,4.0,11.0,26,0.00,,,0.00,meteohub,2013-03-27 21:57:00,
2013-03-27 18:02:00,49.8,17.2,30.13,NNE,22,7.0,11.0,27,0.00,,,0.00,meteohub,2013-03-27 22:02:00,
2013-03-27 18:07:00,49.6,17.1,30.13,NNW,338,7.0,11.0,27,0.00,,,0.00,meteohub,2013-03-27 22:07:00,
2013-03-27 18:12:00,49.3,15.8,30.13,NNE,22,9.0,12.0,26,0.00,,,0.00,meteohub,2013-03-27 22:12:00,
2013-03-27 18:17:00,49.5,16.9,30.13,NE,45,3.0,13.0,27,0.00,,,0.00,meteohub,2013-03-27 22:17:00,
2013-03-27 18:22:00,49.3,16.7,30.13,NE,45,2.0,13.0,27,0.00,,,0.00,meteohub,2013-03-27 22:22:00,
2013-03-27 18:27:00,49.1,16.5,30.13,West,270,0.0,13.0,27,0.00,,,0.00,meteohub,2013-03-27 22:27:00,
2013-03-27 18:32:00,48.7,16.2,30.13,NNE,22,4.0,9.0,27,0.00,,,0.00,meteohub,2013-03-27 22:32:00,
2013-03-27 18:37:00,48.2,15.8,30.13,ENE,68,5.0,8.0,27,0.00,,,0.00,meteohub,2013-03-27 22:37:00,
2013-03-27 18:42:00,48.0,15.6,30.13,NE,45,3.0,8.0,27,0.00,,,0.00,meteohub,2013-03-27 22:42:00,
2013-03-27 18:47:00,47.5,15.1,30.13,South,180,3.0,11.0,27,0.00,,,0.00,meteohub,2013-03-27 22:47:00,
2013-03-27 18:52:00,47.3,15.1,30.13,NE,45,5.0,11.0,27,0.00,,,0.00,meteohub,2013-03-27 22:52:00,
2013-03-27 18:57:00,47.1,14.9,30.16,NNE,22,4.0,11.0,27,0.00,,,0.00,meteohub,2013-03-27 22:57:00,
2013-03-27 19:02:00,46.8,14.5,30.16,SSW,202,4.0,8.0,27,0.00,,,0.00,meteohub,2013-03-27 23:02:00,
2013-03-27 19:07:00,46.4,14.2,30.16,SSW,202,3.0,6.0,27,0.00,,,0.00,meteohub,2013-03-27 23:07:00,
2013-03-27 19:13:00,46.0,14.7,30.16,West,270,3.0,6.0,28,0.00,,,0.00,meteohub,2013-03-27 23:13:00,
2013-03-27 19:18:00,45.9,14.5,30.16,West,270,3.0,5.0,28,0.00,,,0.00,meteohub,2013-03-27 23:18:00,
2013-03-27 19:23:00,45.5,14.4,30.16,West,270,0.0,5.0,28,0.00,,,0.00,meteohub,2013-03-27 23:23:00,
2013-03-27 19:28:00,45.1,14.0,30.16,NNW,338,4.0,5.0,28,0.00,,,0.00,meteohub,2013-03-27 23:28:00,
2013-03-27 19:33:00,45.0,13.8,30.16,SSW,202,0.0,5.0,28,0.00,,,0.00,meteohub,2013-03-27 23:33:00,
2013-03-27 19:38:00,44.2,13.1,30.16,SW,225,0.0,5.0,28,0.00,,,0.00,meteohub,2013-03-27 23:38:00,
2013-03-27 19:43:00,43.9,12.9,30.16,South,180,3.0,5.0,28,0.00,,,0.00,meteohub,2013-03-27 23:43:00,
2013-03-27 19:48:00,43.9,12.9,30.16,SW,225,0.0,7.0,28,0.00,,,0.00,meteohub,2013-03-27 23:48:00,
2013-03-27 19:53:00,43.7,12.7,30.16,WSW,248,4.0,7.0,28,0.00,,,0.00,meteohub,2013-03-27 23:53:00,
2013-03-27 19:58:00,43.3,12.4,30.19,WSW,248,0.0,7.0,28,0.00,,,0.00,meteohub,2013-03-27 23:58:00,
2013-03-27 20:03:00,43.0,12.9,30.19,WNW,292,0.0,5.0,29,0.00,,,0.00,meteohub,2013-03-28 00:03:00,
2013-03-27 20:08:00,42.4,12.4,30.19,South,180,0.0,5.0,29,0.00,,,0.00,meteohub,2013-03-28 00:08:00,
2013-03-27 20:13:00,42.1,12.0,30.19,SSE,158,3.0,3.0,29,0.00,,,0.00,meteohub,2013-03-28 00:13:00,
2013-03-27 20:18:00,42.4,12.4,30.19,NNE,22,5.0,5.0,29,0.00,,,0.00,meteohub,2013-03-28 00:18:00,
2013-03-27 20:23:00,42.3,12.2,30.19,NNW,338,0.0,7.0,29,0.00,,,0.00,meteohub,2013-03-28 00:23:00,
2013-03-27 20:28:00,42.1,12.0,30.19,NNW,338,2.0,7.0,29,0.00,,,0.00,meteohub,2013-03-28 00:28:00,
2013-03-27 20:33:00,42.3,12.2,30.19,NNE,22,3.0,7.0,29,0.00,,,0.00,meteohub,2013-03-28 00:33:00,
2013-03-27 20:38:00,42.3,12.2,30.19,NNW,338,3.0,6.0,29,0.00,,,0.00,meteohub,2013-03-28 00:38:00,
2013-03-27 20:43:00,41.9,12.0,30.19,NNW,338,0.0,6.0,29,0.00,,,0.00,meteohub,2013-03-28 00:43:00,
2013-03-27 20:48:00,41.7,11.8,30.19,North,0,5.0,6.0,29,0.00,,,0.00,meteohub,2013-03-28 00:48:00,
2013-03-27 20:53:00,41.5,11.7,30.19,WSW,248,2.0,5.0,29,0.00,,,0.00,meteohub,2013-03-28 00:53:00,
2013-03-27 20:58:00,41.2,11.3,30.19,North,0,0.0,5.0,29,0.00,,,0.00,meteohub,2013-03-28 00:58:00,
2013-03-27 21:03:00,40.6,11.7,30.19,North,0,0.0,5.0,30,0.00,,,0.00,meteohub,2013-03-28 01:03:00,
2013-03-27 21:08:00,40.1,11.1,30.19,North,0,0.0,3.0,30,0.00,,,0.00,meteohub,2013-03-28 01:08:00,
2013-03-27 21:13:00,39.4,11.3,30.19,North,0,0.0,3.0,31,0.00,,,0.00,meteohub,2013-03-28 01:13:00,
2013-03-27 21:18:00,38.7,11.3,30.19,North,0,0.0,0.0,32,0.00,,,0.00,meteohub,2013-03-28 01:18:00,
2013-03-27 21:23:00,38.1,11.5,30.19,North,0,0.0,0.0,33,0.00,,,0.00,meteohub,2013-03-28 01:23:00,
2013-03-27 21:28:00,38.1,12.9,30.19,North,0,0.0,0.0,35,0.00,,,0.00,meteohub,2013-03-28 01:28:00,
2013-03-27 21:33:00,37.8,13.3,30.19,North,0,0.0,2.0,36,0.00,,,0.00,meteohub,2013-03-28 01:33:00,
2013-03-27 21:38:00,37.6,14.2,30.19,North,0,0.0,2.0,38,0.00,,,0.00,meteohub,2013-03-28 01:38:00,
2013-03-27 21:43:00,37.2,14.5,30.22,North,0,0.0,2.0,39,0.00,,,0.00,meteohub,2013-03-28 01:43:00,
2013-03-27 21:48:00,36.9,14.2,30.22,North,0,0.0,2.0,39,0.00,,,0.00,meteohub,2013-03-28 01:48:00,
2013-03-27 21:53:00,36.7,14.5,30.22,North,0,0.0,2.0,40,0.00,,,0.00,meteohub,2013-03-28 01:53:00,
2013-03-27 21:59:00,37.0,14.4,30.22,North,0,0.0,0.0,39,0.00,,,0.00,meteohub,2013-03-28 01:59:00,
2013-03-27 22:04:00,36.9,14.2,30.22,North,0,0.0,0.0,39,0.00,,,0.00,meteohub,2013-03-28 02:04:00,
2013-03-27 22:09:00,36.7,14.5,30.22,North,0,0.0,0.0,40,0.00,,,0.00,meteohub,2013-03-28 02:09:00,
2013-03-27 22:14:00,36.3,14.4,30.22,North,0,0.0,0.0,40,0.00,,,0.00,meteohub,2013-03-28 02:14:00,
2013-03-27 22:19:00,36.0,14.5,30.22,North,0,0.0,0.0,41,0.00,,,0.00,meteohub,2013-03-28 02:19:00,
2013-03-27 22:24:00,35.6,14.2,30.22,North,0,0.0,0.0,41,0.00,,,0.00,meteohub,2013-03-28 02:24:00,
2013-03-27 22:29:00,35.6,14.2,30.19,North,0,0.0,0.0,41,0.00,,,0.00,meteohub,2013-03-28 02:29:00,
2013-03-27 22:34:00,35.4,14.5,30.19,North,0,0.0,0.0,42,0.00,,,0.00,meteohub,2013-03-28 02:34:00,
2013-03-27 22:39:00,35.2,14.4,30.19,North,0,0.0,0.0,42,0.00,,,0.00,meteohub,2013-03-28 02:39:00,
2013-03-27 22:44:00,34.9,14.7,30.22,North,0,0.0,0.0,43,0.00,,,0.00,meteohub,2013-03-28 02:44:00,
2013-03-27 22:49:00,34.7,14.5,30.22,North,0,0.0,0.0,43,0.00,,,0.00,meteohub,2013-03-28 02:49:00,
2013-03-27 22:54:00,34.7,14.5,30.22,North,0,0.0,0.0,43,0.00,,,0.00,meteohub,2013-03-28 02:54:00,
2013-03-27 22:59:00,34.3,14.2,30.19,North,0,0.0,0.0,43,0.00,,,0.00,meteohub,2013-03-28 02:59:00,
2013-03-27 23:04:00,34.0,13.8,30.19,North,0,0.0,0.0,43,0.00,,,0.00,meteohub,2013-03-28 03:04:00,
2013-03-27 23:09:00,33.8,13.6,30.19,North,0,0.0,0.0,43,0.00,,,0.00,meteohub,2013-03-28 03:09:00,
2013-03-27 23:14:00,33.6,14.5,30.22,North,0,0.0,0.0,45,0.00,,,0.00,meteohub,2013-03-28 03:14:00,
2013-03-27 23:19:00,34.3,15.3,30.22,North,0,0.0,0.0,45,0.00,,,0.00,meteohub,2013-03-28 03:19:00,
2013-03-27 23:24:00,34.9,15.6,30.22,North,0,3.0,0.0,45,0.00,,,0.00,meteohub,2013-03-28 03:24:00,
2013-03-27 23:29:00,35.1,15.3,30.22,WNW,292,2.0,3.0,44,0.00,,,0.00,meteohub,2013-03-28 03:29:00,
2013-03-27 23:34:00,34.9,15.3,30.22,WNW,292,0.0,3.0,44,0.00,,,0.00,meteohub,2013-03-28 03:34:00,
2013-03-27 23:39:00,34.5,14.9,30.22,WNW,292,0.0,3.0,44,0.00,,,0.00,meteohub,2013-03-28 03:39:00,
2013-03-27 23:44:00,34.2,14.5,30.22,WNW,292,0.0,3.0,44,0.00,,,0.00,meteohub,2013-03-28 03:44:00,
2013-03-27 23:49:00,33.8,14.2,30.22,WNW,292,0.0,0.0,44,0.00,,,0.00,meteohub,2013-03-28 03:49:00,
2013-03-27 23:54:00,33.8,14.7,30.22,WNW,292,0.0,0.0,45,0.00,,,0.00,meteohub,2013-03-28 03:54:00,
2013-03-27 23:59:00,34.2,15.6,30.22,WNW,292,3.0,3.0,46,0.00,,,0.00,meteohub,2013-03-28 03:59:00,